Time;durP1;ratioP1;P1;durP2;ratioP2;P2;SDS_P1;SDS_P2;PMS_P1;PMS_P2;Temp;Humidity;BMP_temperature;BMP_pressure;BME280_temperature;BME280_humidity;BME280_pressure;Samples;Min_cycle;Max_cycle;Signal;HPM_P1;HPM_P2
2024/01/13 00:00:57;;;;;;;51.63;28.42;;;;;;;0.61;59.20;100584.69;4422948;32;20132;-91
2024/01/13 00:03:27;;;;;;;43.13;24.60;;;;;;;0.53;59.14;100591.78;4422988;32;20414;-91
2024/01/13 00:05:56;;;;;;;45.33;25.70;;;;;;;0.58;58.93;100589.09;4423337;32;20168;-91
2024/01/13 00:08:26;;;;;;;31.00;20.48;;;;;;;0.37;59.18;100595.53;4422814;32;20133;-92
2024/01/13 00:11:06;;;;;;;27.83;18.55;;;;;;;0.34;59.53;100603.41;4423233;32;20145;-91
2024/01/13 00:13:37;;;;;;;31.50;20.42;;;;;;;0.45;59.20;100602.34;4409150;32;20141;-91
2024/01/13 00:16:06;;;;;;;28.65;16.20;;;;;;;0.54;58.63;100588.28;4423163;32;20164;-92
2024/01/13 00:18:35;;;;;;;33.45;20.20;;;;;;;0.45;58.68;100599.72;4423132;32;20521;-91
2024/01/13 00:21:09;;;;;;;25.83;17.83;;;;;;;0.12;59.50;100595.94;4408727;32;20144;-92
2024/01/13 00:23:38;;;;;;;20.48;14.98;;;;;;;0.32;58.80;100584.31;4423208;32;20137;-92
2024/01/13 00:26:08;;;;;;;26.08;17.58;;;;;;;0.54;58.38;100580.47;4409218;32;20157;-92
2024/01/13 00:28:38;;;;;;;26.87;19.67;;;;;;;0.10;59.27;100589.00;4423025;32;20144;-91
2024/01/13 00:31:16;;;;;;;24.25;16.45;;;;;;;0.44;58.39;100602.38;4423119;32;20428;-92
2024/01/13 00:33:45;;;;;;;;;;;;;;;0.30;58.72;100602.59;4423373;32;20411;-92
2024/01/13 00:36:14;;;;;;;21.40;15.10;;;;;;;0.29;58.60;100600.88;4423337;32;20025;-92
2024/01/13 00:38:43;;;;;;;24.40;15.77;;;;;;;0.51;58.04;100585.72;4422837;32;20152;-91
2024/01/13 00:41:13;;;;;;;25.62;16.85;;;;;;;0.12;58.91;100603.75;4422983;32;20446;-91
2024/01/13 00:43:43;;;;;;;21.90;15.88;;;;;;;0.36;58.60;100607.72;4422901;32;20168;-92
2024/01/13 00:46:13;;;;;;;29.75;16.42;;;;;;;0.45;58.23;100594.53;4422909;32;20137;-92
2024/01/13 00:48:52;;;;;;;22.52;16.77;;;;;;;0.33;58.26;100591.25;4423015;32;20136;-92
2024/01/13 00:51:22;;;;;;;20.80;15.88;;;;;;;0.35;58.17;100586.88;4423197;32;20168;-92
2024/01/13 00:53:51;;;;;;;23.65;17.17;;;;;;;0.55;57.94;100576.97;4423234;32;20152;-91
2024/01/13 00:56:20;;;;;;;19.35;13.80;;;;;;;0.17;58.90;100588.91;4422999;32;20153;-92
2024/01/13 00:58:51;;;;;;;21.10;14.73;;;;;;;0.23;58.82;100595.75;4422868;32;20136;-92
2024/01/13 01:01:20;;;;;;;22.87;17.62;;;;;;;0.70;57.57;100597.56;4422959;32;20148;-91
2024/01/13 01:03:49;;;;;;;22.98;15.55;;;;;;;0.41;58.43;100603.28;4422952;32;20144;-91
2024/01/13 01:06:18;;;;;;;20.55;15.70;;;;;;;0.36;58.46;100599.91;4423218;32;20161;-92
2024/01/13 01:08:48;;;;;;;19.42;15.43;;;;;;;0.20;59.16;100599.28;4428211;32;20140;-91
2024/01/13 01:11:17;;;;;;;24.50;16.80;;;;;;;0.04;59.40;100603.00;4422919;32;20508;-92
2024/01/13 01:13:52;;;;;;;21.35;14.48;;;;;;;0.54;58.36;100593.50;4422902;32;20133;-91
2024/01/13 01:16:23;;;;;;;20.92;15.27;;;;;;;0.08;59.59;100594.25;4422626;32;20144;-92
2024/01/13 01:18:52;;;;;;;22.52;16.10;;;;;;;-0.01;60.05;100599.59;4422673;32;20144;-92
2024/01/13 01:21:22;;;;;;;23.75;15.88;;;;;;;0.38;58.78;100603.31;4422777;32;20165;-92
2024/01/13 01:23:51;;;;;;;19.80;15.38;;;;;;;0.36;58.85;100601.66;4423102;32;20466;-92
2024/01/13 01:26:21;;;;;;;24.52;16.20;;;;;;;0.58;58.39;100600.38;4422574;32;20145;-92
2024/01/13 01:28:50;;;;;;;22.90;15.80;;;;;;;0.35;58.86;100605.97;4422665;32;20157;-91
2024/01/13 01:31:28;;;;;;;19.77;15.52;;;;;;;0.31;58.86;100603.44;4422124;32;20171;-92
2024/01/13 01:33:57;;;;;;;20.62;16.08;;;;;;;0.41;58.71;100595.47;4422662;32;20141;-92
2024/01/13 01:36:26;;;;;;;18.90;14.23;;;;;;;0.61;58.12;100589.03;4422468;32;20418;-92
2024/01/13 01:38:56;;;;;;;21.52;13.90;;;;;;;0.58;57.80;100589.09;4408946;32;20137;-92
2024/01/13 01:41:26;;;;;;;20.83;14.38;;;;;;;0.50;58.26;100584.00;4408696;32;20144;-92
2024/01/13 01:43:54;;;;;;;18.02;13.65;;;;;;;0.44;58.05;100584.12;4422566;32;20156;-91
2024/01/13 01:46:24;;;;;;;19.87;14.07;;;;;;;0.62;57.89;100575.09;4422368;32;20151;-92
2024/01/13 01:49:00;;;;;;;16.70;13.10;;;;;;;0.47;57.82;100571.00;4422379;32;20141;-92
2024/01/13 01:51:30;;;;;;;17.05;13.73;;;;;;;0.53;57.60;100565.72;4422405;32;20125;-92
2024/01/13 01:54:01;;;;;;;18.27;12.65;;;;;;;0.55;57.79;100563.91;4408933;32;20144;-92
2024/01/13 01:56:35;;;;;;;19.25;13.27;;;;;;;0.27;58.66;100565.28;4408456;32;20242;-91
2024/01/13 01:59:06;;;;;;;17.55;12.35;;;;;;;0.20;58.73;100565.41;4422355;32;20149;-92
2024/01/13 02:01:38;;;;;;;18.42;15.35;;;;;;;-0.01;59.50;100555.28;4422324;32;20129;-92
2024/01/13 02:04:09;;;;;;;18.12;13.85;;;;;;;-0.04;59.67;100548.41;4422462;32;20148;-92
2024/01/13 02:06:39;;;;;;;21.45;15.20;;;;;;;0.15;59.13;100533.31;4422084;32;20167;-92
2024/01/13 02:09:09;;;;;;;18.35;14.30;;;;;;;0.26;58.53;100533.16;4422605;32;20132;-92
2024/01/13 02:11:39;;;;;;;21.62;14.80;;;;;;;-0.12;59.31;100529.44;4422158;32;20149;-92
2024/01/13 02:14:09;;;;;;;17.12;14.55;;;;;;;0.29;58.74;100522.69;4408378;32;20159;-92
2024/01/13 02:16:45;;;;;;;17.60;13.80;;;;;;;-0.04;59.50;100527.56;4422159;32;20144;-92
2024/01/13 02:19:16;;;;;;;21.62;14.18;;;;;;;0.10;59.11;100524.72;4422247;32;20145;-92
2024/01/13 02:21:47;;;;;;;19.30;13.98;;;;;;;0.04;59.40;100527.44;4422283;32;20129;-92
2024/01/13 02:24:16;;;;;;;18.17;14.07;;;;;;;0.42;58.27;100521.56;4422362;32;20136;-92
2024/01/13 02:26:47;;;;;;;19.35;15.25;;;;;;;0.15;58.93;100514.22;4421798;32;20161;-92
2024/01/13 02:29:17;;;;;;;17.98;13.75;;;;;;;0.12;59.04;100515.16;4421938;32;20148;-92
2024/01/13 02:31:46;;;;;;;18.15;14.20;;;;;;;0.47;58.20;100521.47;4408290;32;20152;-92
2024/01/13 02:34:16;;;;;;;18.17;14.48;;;;;;;0.35;58.54;100524.31;4422000;32;20136;-92
2024/01/13 02:36:50;;;;;;;17.62;13.50;;;;;;;0.24;58.41;100527.97;4421839;32;20144;-92
2024/01/13 02:39:20;;;;;;;20.58;14.80;;;;;;;0.21;58.91;100525.41;4421973;32;20161;-92
2024/01/13 02:41:59;;;;;;;18.15;12.73;;;;;;;0.27;58.52;100520.97;4421732;32;20144;-92
2024/01/13 02:44:35;;;;;;;17.25;13.73;;;;;;;0.56;57.82;100534.38;4422888;32;20486;-92
2024/01/13 02:47:05;;;;;;;18.50;14.57;;;;;;;0.24;58.72;100522.75;4424418;32;20153;-92
2024/01/13 02:49:34;;;;;;;22.33;15.38;;;;;;;0.34;58.73;100517.38;4424143;32;20176;-92
2024/01/13 02:52:09;;;;;;;17.20;14.07;;;;;;;0.26;59.11;100514.06;4423891;32;20212;-93
2024/01/13 02:54:39;;;;;;;20.73;14.70;;;;;;;-0.09;60.01;100520.69;4423923;32;20386;-92
2024/01/13 02:57:08;;;;;;;18.37;14.40;;;;;;;0.15;59.45;100507.25;4424458;32;20164;-92
2024/01/13 02:59:38;;;;;;;18.17;14.07;;;;;;;0.18;59.42;100508.97;4409941;32;20149;-92
2024/01/13 03:02:11;;;;;;;21.27;15.25;;;;;;;0.35;58.94;100512.13;4424074;32;20137;-93
2024/01/13 03:04:41;;;;;;;20.40;14.65;;;;;;;0.44;58.44;100498.94;4423834;32;20144;-92
2024/01/13 03:07:17;;;;;;;17.90;13.38;;;;;;;0.41;58.48;100499.00;4423753;32;20420;-92
2024/01/13 03:09:46;;;;;;;19.30;13.62;;;;;;;0.48;58.43;100502.38;4423658;32;20145;-92
2024/01/13 03:12:15;;;;;;;17.48;13.32;;;;;;;0.22;59.11;100488.03;4424089;32;20164;-93
2024/01/13 03:14:46;;;;;;;17.27;13.27;;;;;;;0.34;59.04;100480.87;4423775;32;20160;-93
2024/01/13 03:17:22;;;;;;;20.00;15.00;;;;;;;0.67;58.07;100489.81;4423941;32;20144;-93
2024/01/13 03:19:51;;;;;;;18.62;14.38;;;;;;;0.59;57.90;100482.13;4423849;32;20161;-92
2024/01/13 03:22:24;;;;;;;20.25;15.02;;;;;;;0.57;58.35;100485.69;4423947;32;20161;-92
2024/01/13 03:24:54;;;;;;;16.60;13.40;;;;;;;0.63;57.84;100483.78;4423773;32;20137;-92
2024/01/13 03:27:24;;;;;;;18.83;13.18;;;;;;;0.56;58.38;100483.97;4424490;32;20752;-93
2024/01/13 03:29:53;;;;;;;20.50;14.35;;;;;;;0.73;57.89;100481.88;4424021;32;20124;-93
2024/01/13 03:32:25;;;;;;;19.50;13.43;;;;;;;0.59;58.09;100482.13;4423713;32;20148;-92
2024/01/13 03:34:55;;;;;;;20.92;15.15;;;;;;;0.34;58.94;100475.66;4410043;32;20488;-92
2024/01/13 03:37:25;;;;;;;23.73;14.73;;;;;;;0.46;58.78;100480.66;4423555;32;20172;-92
2024/01/13 03:39:55;;;;;;;20.12;14.65;;;;;;;0.06;59.90;100481.37;4423660;32;20164;-92
2024/01/13 03:42:24;;;;;;;19.62;14.15;;;;;;;0.61;58.55;100471.69;4423868;32;20184;-92
2024/01/13 03:44:54;;;;;;;19.75;14.07;;;;;;;0.38;58.96;100475.59;4424134;32;20152;-92
2024/01/13 03:47:30;;;;;;;20.30;13.10;;;;;;;0.45;59.02;100473.72;4423748;32;20176;-92
2024/01/13 03:50:00;;;;;;;21.08;14.20;;;;;;;0.51;58.46;100464.91;4423730;32;20168;-92
2024/01/13 03:52:30;;;;;;;20.50;14.85;;;;;;;0.56;58.20;100463.09;4423901;32;20153;-93
2024/01/13 03:55:02;;;;;;;19.45;13.32;;;;;;;0.73;58.03;100455.81;4409340;32;20145;-92
2024/01/13 03:57:31;;;;;;;22.65;15.73;;;;;;;0.71;57.85;100461.06;4409580;32;20176;-92
2024/01/13 04:00:00;;;;;;;20.85;15.13;;;;;;;0.74;58.05;100460.97;4423843;32;20157;-92
2024/01/13 04:02:37;;;;;;;20.48;14.93;;;;;;;0.63;58.38;100460.31;4423544;32;20145;-92
2024/01/13 04:05:07;;;;;;;20.62;15.02;;;;;;;0.75;58.33;100451.41;4423712;32;20414;-92
2024/01/13 04:07:38;;;;;;;20.58;14.98;;;;;;;0.61;58.26;100449.06;4423511;32;20125;-92
2024/01/13 04:10:09;;;;;;;20.23;15.10;;;;;;;0.52;58.77;100457.09;4409463;32;20164;-92
2024/01/13 04:12:39;;;;;;;21.87;14.00;;;;;;;0.45;59.20;100452.88;4409978;32;20164;-92
2024/01/13 04:15:18;;;;;;;24.37;16.30;;;;;;;0.84;58.22;100452.97;4410159;32;20176;-92
2024/01/13 04:17:47;;;;;;;23.17;16.10;;;;;;;0.64;58.68;100456.84;4408959;32;20141;-92
2024/01/13 04:20:16;;;;;;;22.45;16.45;;;;;;;0.33;59.44;100453.97;4423421;32;20145;-92
2024/01/13 04:22:53;;;;;;;23.00;16.25;;;;;;;0.62;59.00;100448.19;4423361;32;20137;-93
2024/01/13 04:25:24;;;;;;;24.75;17.33;;;;;;;0.70;58.38;100448.88;4423372;32;20156;-92
2024/01/13 04:27:54;;;;;;;22.42;16.37;;;;;;;0.49;58.86;100451.94;4423669;32;20469;-92
2024/01/13 04:30:24;;;;;;;24.67;16.77;;;;;;;0.80;58.30;100451.34;4423249;32;20153;-92
2024/01/13 04:32:53;;;;;;;23.10;15.75;;;;;;;0.49;59.07;100459.75;4409992;32;20141;-92
2024/01/13 04:35:23;;;;;;;26.70;17.23;;;;;;;0.60;59.05;100447.37;4423269;32;20132;-92
2024/01/13 04:37:54;;;;;;;22.17;16.90;;;;;;;0.73;58.57;100456.66;4423042;32;20141;-92
2024/01/13 04:40:23;;;;;;;23.52;17.92;;;;;;;0.85;58.22;100442.50;4423222;32;20144;-92
2024/01/13 04:42:54;;;;;;;26.52;17.33;;;;;;;0.66;58.61;100441.16;4423264;32;20518;-92
2024/01/13 04:45:30;;;;;;;25.98;17.85;;;;;;;0.91;58.07;100438.91;4423326;32;20133;-91
2024/01/13 04:48:02;;;;;;;21.08;15.98;;;;;;;0.83;58.31;100446.91;4423458;32;20176;-92
2024/01/13 04:50:31;;;;;;;25.20;17.90;;;;;;;0.72;58.69;100439.28;4423305;32;20152;-92
2024/01/13 04:53:02;;;;;;;22.90;16.60;;;;;;;0.50;59.40;100435.38;4423147;32;20133;-92
2024/01/13 04:55:32;;;;;;;25.23;16.48;;;;;;;0.54;59.46;100433.59;4423015;32;20129;-92
2024/01/13 04:58:01;;;;;;;23.08;16.50;;;;;;;0.61;59.18;100430.81;4423231;32;20156;-92
2024/01/13 05:00:31;;;;;;;24.17;18.00;;;;;;;0.58;58.89;100428.28;4423058;32;20175;-92
2024/01/13 05:03:03;;;;;;;23.80;17.23;;;;;;;0.81;58.69;100426.94;4423375;32;20160;-92
2024/01/13 05:05:32;;;;;;;21.83;17.30;;;;;;;0.85;58.52;100426.84;4423050;32;20148;-92
2024/01/13 05:08:03;;;;;;;23.10;15.68;;;;;;;0.74;58.75;100423.59;4422045;32;20149;-92
2024/01/13 05:10:33;;;;;;;22.37;16.30;;;;;;;0.81;58.57;100426.94;4409185;32;20152;-92
2024/01/13 05:13:02;;;;;;;23.50;15.73;;;;;;;0.23;60.27;100415.91;4423146;32;20132;-92
2024/01/13 05:15:32;;;;;;;18.92;14.50;;;;;;;0.86;59.23;100422.50;4422871;32;20117;-92
2024/01/13 05:18:02;;;;;;;20.08;15.88;;;;;;;0.74;59.61;100424.47;4409255;32;20144;-92
2024/01/13 05:20:31;;;;;;;23.48;16.75;;;;;;;0.94;59.05;100415.34;4408855;32;20148;-92
2024/01/13 05:23:00;;;;;;;24.87;16.55;;;;;;;0.76;59.58;100411.41;4409095;32;20160;-93
2024/01/13 05:25:31;;;;;;;23.08;16.12;;;;;;;0.73;59.42;100412.31;4423089;32;20137;-92
2024/01/13 05:28:00;;;;;;;22.27;15.88;;;;;;;0.67;59.82;100403.75;4422914;32;20136;-92
2024/01/13 05:30:32;;;;;;;22.52;15.82;;;;;;;0.33;60.88;100404.44;4409186;32;20148;-92
2024/01/13 05:33:02;;;;;;;;;;;;;;;0.78;59.86;100406.13;4423622;32;20140;-92
2024/01/13 05:35:32;;;;;;;23.12;16.98;;;;;;;0.84;59.56;100396.44;4422800;32;20363;-92
2024/01/13 05:38:01;;;;;;;23.95;17.00;;;;;;;0.14;61.39;100410.88;4422694;32;20161;-92
2024/01/13 05:40:31;;;;;;;24.95;17.90;;;;;;;0.65;60.42;100408.16;4408687;32;20430;-92
2024/01/13 05:43:01;;;;;;;21.75;16.20;;;;;;;0.45;60.94;100404.19;4409031;32;20505;-92
2024/01/13 05:45:30;;;;;;;20.88;15.10;;;;;;;0.77;60.05;100404.44;4422677;32;20129;-92
2024/01/13 05:48:00;;;;;;;26.98;16.52;;;;;;;0.73;60.23;100408.84;4409112;32;20125;-92
2024/01/13 05:50:30;;;;;;;20.88;15.48;;;;;;;0.61;60.43;100401.28;4422572;32;20152;-92
2024/01/13 05:52:59;;;;;;;22.67;14.73;;;;;;;0.68;60.38;100405.50;4408904;32;20140;-92
2024/01/13 05:55:28;;;;;;;23.33;15.65;;;;;;;0.69;60.55;100399.37;4408654;32;20156;-92
2024/01/13 05:57:59;;;;;;;24.67;16.30;;;;;;;0.40;61.22;100405.19;4422626;32;20670;-92
2024/01/13 06:00:29;;;;;;;24.02;17.23;;;;;;;0.68;61.00;100401.12;4422540;32;20149;-92
2024/01/13 06:02:59;;;;;;;24.42;17.83;;;;;;;0.62;61.28;100413.44;4422898;32;20144;-92
2024/01/13 06:05:31;;;;;;;27.23;17.75;;;;;;;0.66;61.19;100415.06;4422447;32;20153;-92
2024/01/13 06:08:01;;;;;;;25.85;17.70;;;;;;;0.67;61.36;100415.06;4422287;32;20141;-92
2024/01/13 06:10:31;;;;;;;24.63;17.12;;;;;;;0.68;61.40;100410.72;4422305;32;20149;-92
2024/01/13 06:13:03;;;;;;;28.10;16.80;;;;;;;0.79;61.17;100415.69;4422230;32;20140;-92
2024/01/13 06:15:34;;;;;;;24.35;16.37;;;;;;;0.62;61.46;100414.28;4422231;32;20145;-92
2024/01/13 06:18:07;;;;;;;24.50;15.70;;;;;;;0.78;61.28;100414.81;4409269;32;20165;-92
2024/01/13 06:20:40;;;;;;;22.05;16.52;;;;;;;0.94;60.96;100411.00;4424109;32;20145;-92
2024/01/13 06:23:09;;;;;;;20.92;14.85;;;;;;;1.04;60.80;100410.81;4410463;32;20160;-93
2024/01/13 06:25:40;;;;;;;24.65;16.25;;;;;;;1.19;60.38;100405.25;4424208;32;20148;-92
2024/01/13 06:28:19;;;;;;;21.45;15.73;;;;;;;1.13;60.69;100408.00;4409842;32;20145;-92
2024/01/13 06:30:49;;;;;;;22.05;16.10;;;;;;;1.35;59.98;100408.38;4423828;32;20435;-92
2024/01/13 06:33:19;;;;;;;22.90;17.23;;;;;;;1.55;59.52;100411.38;4424312;32;20152;-92
2024/01/13 06:35:54;;;;;;;22.55;16.17;;;;;;;1.47;59.94;100415.91;4424014;32;20164;-92
2024/01/13 06:38:23;;;;;;;25.48;16.80;;;;;;;1.50;59.72;100407.97;4423901;32;20425;-92
2024/01/13 06:40:56;;;;;;;22.35;15.70;;;;;;;1.60;59.50;100406.03;4410049;32;20435;-92
2024/01/13 06:43:30;;;;;;;22.80;17.58;;;;;;;1.96;58.37;100397.25;4410215;32;20168;-92
2024/01/13 06:45:59;;;;;;;24.42;16.60;;;;;;;1.68;59.15;100402.31;4424054;32;20420;-92
2024/01/13 06:48:28;;;;;;;25.60;16.83;;;;;;;1.70;59.14;100397.03;4424167;32;20168;-92
2024/01/13 06:50:57;;;;;;;21.90;16.67;;;;;;;1.58;59.49;100402.56;4424477;32;20415;-92
2024/01/13 06:53:26;;;;;;;25.00;17.08;;;;;;;1.91;58.53;100400.88;4424005;32;20148;-93
2024/01/13 06:55:55;;;;;;;31.25;19.35;;;;;;;1.80;58.84;100405.53;4424100;32;20414;-92
2024/01/13 06:58:25;;;;;;;24.80;17.52;;;;;;;2.01;58.42;100396.28;4423856;32;20141;-92
2024/01/13 07:00:55;;;;;;;33.97;22.85;;;;;;;1.87;58.87;100404.47;4423908;32;20752;-92
2024/01/13 07:03:29;;;;;;;50.30;28.90;;;;;;;2.03;58.45;100397.09;4424001;32;20180;-92
2024/01/13 07:05:58;;;;;;;63.55;41.83;;;;;;;2.14;57.99;100395.06;4424158;32;20160;-92
2024/01/13 07:08:27;;;;;;;42.45;27.62;;;;;;;1.58;60.07;100400.81;4423651;32;20525;-92
2024/01/13 07:10:57;;;;;;;46.53;31.40;;;;;;;1.69;59.75;100404.03;4423901;32;20137;-93
2024/01/13 07:13:26;;;;;;;34.60;23.83;;;;;;;1.76;60.27;100398.66;4424427;32;20149;-92
2024/01/13 07:15:57;;;;;;;51.08;33.50;;;;;;;1.67;60.15;100399.75;4423715;32;20140;-92
2024/01/13 07:18:27;;;;;;;37.53;26.05;;;;;;;1.68;60.07;100391.88;4427291;32;20173;-92
2024/01/13 07:20:56;;;;;;;40.47;24.85;;;;;;;1.76;60.01;100393.44;4410588;32;20148;-92
2024/01/13 07:23:30;;;;;;;40.08;26.12;;;;;;;1.67;60.58;100399.75;4423767;32;20184;-92
2024/01/13 07:25:59;;;;;;;44.80;25.92;;;;;;;1.65;60.50;100397.16;4423697;32;20168;-92
2024/01/13 07:28:29;;;;;;;44.33;31.37;;;;;;;1.89;60.32;100395.69;4423546;32;20172;-92
2024/01/13 07:31:00;;;;;;;45.95;29.10;;;;;;;1.26;62.00;100398.97;4423128;32;20180;-92
2024/01/13 07:33:30;;;;;;;47.22;31.17;;;;;;;1.68;60.74;100388.41;4423591;32;20125;-92
2024/01/13 07:35:59;;;;;;;44.58;28.05;;;;;;;1.96;60.28;100391.16;4423834;32;20539;-92
2024/01/13 07:38:32;;;;;;;44.85;27.52;;;;;;;1.85;60.41;100385.34;4423395;32;20132;-92
2024/01/13 07:41:01;;;;;;;45.55;28.08;;;;;;;1.94;59.95;100378.16;4423720;32;20438;-92
2024/01/13 07:43:30;;;;;;;43.97;27.25;;;;;;;2.25;59.55;100387.75;4423702;32;20140;-92
2024/01/13 07:46:01;;;;;;;51.75;31.20;;;;;;;1.78;60.45;100383.78;4423484;32;20148;-93
2024/01/13 07:48:38;;;;;;;54.80;34.65;;;;;;;1.73;61.19;100376.94;4423666;32;20177;-92
2024/01/13 07:51:07;;;;;;;53.22;32.10;;;;;;;1.42;62.07;100389.87;4423933;32;20153;-92
2024/01/13 07:53:53;;;;;;;45.00;28.62;;;;;;;1.83;61.19;100381.94;4423122;32;20148;-92
2024/01/13 07:56:23;;;;;;;50.08;29.23;;;;;;;1.91;60.94;100382.59;4423395;32;20148;-92
2024/01/13 07:58:53;;;;;;;55.35;32.40;;;;;;;1.60;61.59;100387.75;4423604;32;20133;-93
2024/01/13 08:01:23;;;;;;;55.95;32.40;;;;;;;1.75;61.53;100384.75;4409722;32;20133;-92
2024/01/13 08:04:06;;;;;;;47.47;29.65;;;;;;;1.79;61.56;100382.91;4423387;32;20164;-92
2024/01/13 08:06:36;;;;;;;51.95;31.87;;;;;;;2.09;60.70;100378.63;4409438;32;20159;-92
2024/01/13 08:09:06;;;;;;;54.20;32.67;;;;;;;1.93;61.09;100376.41;4409924;32;20502;-92
2024/01/13 08:11:35;;;;;;;61.05;34.42;;;;;;;1.68;61.27;100376.19;4423406;32;20129;-92
2024/01/13 08:14:09;;;;;;;59.10;31.45;;;;;;;1.87;61.07;100371.38;4409526;32;20191;-92
2024/01/13 08:16:42;;;;;;;53.65;30.20;;;;;;;2.00;60.89;100373.66;4423261;32;20152;-92
2024/01/13 08:19:17;;;;;;;49.40;30.33;;;;;;;1.53;61.66;100368.75;4423273;32;20152;-92
2024/01/13 08:21:46;;;;;;;52.28;30.10;;;;;;;1.68;61.21;100372.72;4409578;32;20148;-92
2024/01/13 08:24:16;;;;;;;56.67;32.17;;;;;;;1.95;61.06;100377.25;4423608;32;20136;-92
2024/01/13 08:26:50;;;;;;;49.75;31.17;;;;;;;1.87;61.14;100386.19;4423204;32;20143;-92
2024/01/13 08:29:19;;;;;;;54.30;29.05;;;;;;;2.14;60.39;100388.06;4423126;32;20172;-92
2024/01/13 08:31:53;;;;;;;53.90;31.40;;;;;;;2.11;60.37;100384.69;4409227;32;20137;-92
2024/01/13 08:34:23;;;;;;;54.20;30.85;;;;;;;2.04;60.61;100378.75;4409546;32;20424;-92
2024/01/13 08:37:00;;;;;;;52.58;28.67;;;;;;;1.45;62.32;100375.91;4409283;32;20148;-92
2024/01/13 08:39:29;;;;;;;54.75;31.30;;;;;;;1.87;61.28;100373.97;4423139;32;20192;-92
2024/01/13 08:41:59;;;;;;;62.80;35.20;;;;;;;1.62;61.62;100380.69;4422278;32;20133;-91
2024/01/13 08:44:41;;;;;;;78.22;48.50;;;;;;;1.66;61.64;100366.66;4422981;32;20141;-91
2024/01/13 08:47:12;;;;;;;60.47;35.42;;;;;;;1.75;61.60;100366.47;4422974;32;20153;-91
2024/01/13 08:49:41;;;;;;;69.50;38.13;;;;;;;1.80;61.50;100372.41;4422876;32;20140;-92
2024/01/13 08:52:10;;;;;;;51.22;29.55;;;;;;;1.65;61.58;100367.56;4422929;32;20136;-92
2024/01/13 08:54:39;;;;;;;54.75;27.73;;;;;;;2.15;60.66;100374.09;4422747;32;20168;-92
2024/01/13 08:57:09;;;;;;;49.28;28.83;;;;;;;2.12;60.38;100366.34;4423262;32;20140;-92
2024/01/13 08:59:38;;;;;;;48.75;29.42;;;;;;;2.32;59.98;100370.16;4422759;32;20152;-92
2024/01/13 09:02:08;;;;;;;54.83;29.35;;;;;;;2.15;60.24;100373.25;4422721;32;20140;-92
2024/01/13 09:04:39;;;;;;;47.20;26.45;;;;;;;1.80;61.14;100374.16;4422554;32;20157;-92
2024/01/13 09:07:09;;;;;;;46.60;28.55;;;;;;;2.20;60.44;100380.06;4422415;32;20421;-91
2024/01/13 09:09:39;;;;;;;55.12;30.45;;;;;;;1.95;60.59;100366.78;4422387;32;20168;-91
2024/01/13 09:12:08;;;;;;;50.80;28.95;;;;;;;1.80;60.62;100368.94;4422868;32;20168;-92
2024/01/13 09:14:38;;;;;;;51.55;29.85;;;;;;;2.08;60.30;100369.06;4422527;32;20511;-91
2024/01/13 09:17:07;;;;;;;45.22;28.12;;;;;;;1.95;60.35;100376.41;4408186;32;20165;-91
2024/01/13 09:19:36;;;;;;;49.80;27.92;;;;;;;1.84;60.66;100373.19;4422276;32;20163;-91
2024/01/13 09:22:09;;;;;;;45.15;25.75;;;;;;;2.09;60.09;100381.25;4422711;32;20140;-91
2024/01/13 09:24:41;;;;;;;42.85;24.50;;;;;;;1.95;60.17;100385.09;4422202;32;20137;-91
2024/01/13 09:27:11;;;;;;;47.55;28.10;;;;;;;1.95;60.10;100377.25;4422466;32;20181;-91
2024/01/13 09:29:40;;;;;;;46.78;26.67;;;;;;;1.69;60.63;100385.75;4422310;32;20152;-91
2024/01/13 09:32:09;;;;;;;40.58;23.70;;;;;;;1.51;60.95;100388.81;4408403;32;20635;-91
2024/01/13 09:34:42;;;;;;;38.05;24.12;;;;;;;1.71;60.84;100386.56;4422235;32;20176;-91
2024/01/13 09:37:15;;;;;;;49.78;28.65;;;;;;;2.02;59.91;100383.19;4422231;32;20150;-91
2024/01/13 09:39:48;;;;;;;44.13;26.73;;;;;;;1.49;61.62;100372.31;4422126;32;20124;-91
2024/01/13 09:42:28;;;;;;;41.88;22.75;;;;;;;1.72;60.54;100361.31;4422542;32;20207;-91
2024/01/13 09:45:00;;;;;;;;;;;;;;;2.03;59.83;100368.34;4406875;32;20511;-92
2024/01/13 09:47:30;;;;;;;43.10;24.48;;;;;;;1.73;60.55;100358.63;4406733;32;20397;-91
2024/01/13 09:50:00;;;;;;;42.33;23.48;;;;;;;1.99;59.98;100354.50;4407184;32;20600;-91
2024/01/13 09:55:13;;;;;;;45.17;25.25;;;;;;;1.75;60.11;100350.78;4392815;32;20140;-91
2024/01/13 09:57:43;;;;;;;41.88;22.50;;;;;;;1.74;60.15;100341.22;4406618;32;20217;-91
2024/01/13 10:00:14;;;;;;;37.70;22.23;;;;;;;1.88;60.25;100346.94;4407095;32;20517;-91
2024/01/13 10:02:44;;;;;;;40.38;24.87;;;;;;;1.96;59.84;100334.53;4406800;32;20429;-92
2024/01/13 10:05:19;;;;;;;55.75;30.65;;;;;;;2.16;59.34;100335.75;4406918;32;20145;-91
2024/01/13 10:07:53;;;;;;;37.95;23.50;;;;;;;1.95;59.76;100329.34;4406662;32;20157;-91
2024/01/13 10:10:25;;;;;;;41.50;23.65;;;;;;;2.16;59.49;100333.97;4406802;32;20168;-91
2024/01/13 10:12:55;;;;;;;35.63;20.90;;;;;;;2.32;58.91;100330.94;4393004;32;20169;-92
2024/01/13 10:15:24;;;;;;;36.55;22.13;;;;;;;2.05;59.68;100325.56;4406687;32;20394;-92
2024/01/13 10:17:54;;;;;;;37.65;20.48;;;;;;;2.24;59.34;100328.53;4406878;32;20164;-92
2024/01/13 10:20:25;;;;;;;34.72;19.87;;;;;;;2.30;58.46;100328.37;4406709;32;20164;-92
2024/01/13 10:22:56;;;;;;;32.58;20.50;;;;;;;2.19;59.08;100331.28;4406547;32;20164;-91
2024/01/13 10:25:26;;;;;;;30.50;19.05;;;;;;;2.45;58.38;100332.28;4406505;32;20156;-92
2024/01/13 10:27:57;;;;;;;35.17;20.73;;;;;;;2.08;59.33;100330.72;4406653;32;20141;-92
2024/01/13 10:30:26;;;;;;;37.72;21.60;;;;;;;2.56;58.29;100326.75;4406435;32;20137;-91
2024/01/13 10:32:56;;;;;;;37.95;20.85;;;;;;;2.51;57.87;100326.03;4406877;32;20148;-91
2024/01/13 10:35:28;;;;;;;36.83;20.00;;;;;;;2.36;58.57;100324.72;4406420;32;20152;-91
2024/01/13 10:37:59;;;;;;;37.50;20.83;;;;;;;2.20;58.79;100325.16;4406268;32;20149;-92
2024/01/13 10:40:29;;;;;;;41.97;19.60;;;;;;;1.96;59.43;100329.28;4406234;32;20145;-92
2024/01/13 10:43:05;;;;;;;33.30;21.83;;;;;;;2.11;59.09;100316.72;4392679;32;20146;-91
2024/01/13 10:45:36;;;;;;;30.90;18.42;;;;;;;1.95;59.35;100309.28;4406351;32;20493;-92
2024/01/13 10:48:13;;;;;;;31.35;18.37;;;;;;;2.37;58.63;100302.88;4406971;32;20160;-92
2024/01/13 10:50:48;;;;;;;31.92;20.58;;;;;;;2.19;58.82;100302.53;4406469;32;20514;-92
2024/01/13 10:53:26;;;;;;;29.85;19.45;;;;;;;2.30;58.34;100296.16;4406658;32;20494;-92
2024/01/13 10:55:57;;;;;;;31.92;18.00;;;;;;;2.54;57.90;100298.03;4406390;32;20157;-91
2024/01/13 10:58:27;;;;;;;26.70;18.23;;;;;;;2.52;57.81;100289.34;4392392;32;20411;-91
2024/01/13 11:00:56;;;;;;;30.27;17.52;;;;;;;2.29;58.65;100289.19;4406233;32;20132;-91
2024/01/13 11:03:27;;;;;;;29.08;17.25;;;;;;;2.38;58.06;100299.38;4392419;32;20399;-91
2024/01/13 11:05:56;;;;;;;36.28;21.70;;;;;;;2.50;57.96;100285.94;4394434;32;20409;-91
2024/01/13 11:08:28;;;;;;;25.98;17.90;;;;;;;2.31;58.48;100284.78;4408183;32;20178;-91
2024/01/13 11:11:01;;;;;;;26.62;17.60;;;;;;;2.20;58.79;100285.94;4408472;32;20160;-91
2024/01/13 11:13:39;;;;;;;25.33;17.25;;;;;;;1.86;59.62;100283.44;4408278;32;20148;-91
2024/01/13 11:16:13;;;;;;;28.77;18.02;;;;;;;2.18;58.74;100279.91;4408398;32;20141;-91
2024/01/13 11:18:45;;;;;;;30.65;17.87;;;;;;;2.29;58.63;100271.72;4407990;32;20149;-91
2024/01/13 11:21:17;;;;;;;33.33;17.67;;;;;;;2.38;58.50;100274.09;4408526;32;20141;-91
2024/01/13 11:24:13;;;;;;;32.58;20.45;;;;;;;2.53;58.02;100266.66;4407809;32;20164;-91
2024/01/13 11:26:45;;;;;;;26.20;16.35;;;;;;;2.65;57.57;100261.94;4437647;32;20152;-91
2024/01/13 11:29:17;;;;;;;29.35;16.62;;;;;;;3.02;56.75;100258.16;4438906;32;20151;-91
2024/01/13 11:31:47;;;;;;;27.05;16.50;;;;;;;2.84;57.07;100251.72;4438165;32;20141;-91
2024/01/13 11:34:18;;;;;;;31.30;15.82;;;;;;;2.51;58.26;100251.03;4424266;32;20179;-91
2024/01/13 11:36:50;;;;;;;33.63;18.55;;;;;;;2.42;58.39;100246.09;4438112;32;20172;-91